Terminal Aerodrome Forecast
Issued by NWS Cleveland, OH

Home | Current Version | Previous Version | Text Only | Print | Product List | Glossary On
Versions: 1 2 3 4 5 6 7 8 9 10 11 12 13 14 15 16 17 18 19
000
FTUS41 KCLE 260525
TAFERI
TAF
KERI 260525Z 2606/2706 27008KT 4SM -RA BR OVC004
     FM261000 27008KT 6SM -DZ BR OVC008
     FM261500 27010KT P6SM OVC015
     FM262100 25010KT P6SM BKN035=

USA.gov is the U.S. government's official web portal to all federal, state and local government web resources and services.